Terminal Aerodrome Forecast
Issued by NWS

Home | Current Version | Previous Version | Text Only | Print | Product List | Glossary On
Versions: 1 2 3 4 5 6 7 8 9 10 11 12
000
FTUS43 KMQT 031738
TAFCMX
TAF
KCMX 031738Z 0318/0418 27018G27KT P6SM SCT060
     FM032300 29008KT P6SM FEW070
     FM040200 34004KT P6SM FEW080=

USA.gov is the U.S. government's official web portal to all federal, state and local government web resources and services.